Lumsden, Canada
Current Conditions -  °F | °C
As of 5:38 PM on Thursday 18 Dec 2014 (Local Time) from CYQR Reporting Station
Light Snow Light Snow  
Wind Chill: -8°   Ceiling: 600
Heat Index: -4°   Visibility: 15mi
Dew Point: -4°   Wind: 6mph
Humidity: 100%   Direction: 190°S
Pressure: 29.91"   Gusts: NA
Location:  50.64°N, 104.87°W
Report Text: CYQR 182338Z 19005KT 15SM -SN OVC006 M04/M04 A2991 RMK ST8 SLP165
Loading
Personal Weather Stations






























Interactive Weather Map New forecast layout! Learn more

10-Day Weather Forecast

Advertisements
Track Severe Weather on mobile